createdAt,value
2023-03-15T00:03:53.976Z,998.00
2023-03-15T00:07:54.016Z,997.00
2023-03-15T00:11:54.036Z,990.00
2023-03-15T00:15:54.203Z,986.00
2023-03-15T00:19:54.086Z,982.00
2023-03-15T00:23:54.127Z,977.00
2023-03-15T00:27:54.121Z,981.00
2023-03-15T00:31:54.233Z,981.00
2023-03-15T00:35:54.286Z,971.00
2023-03-15T00:39:54.329Z,969.00
2023-03-15T00:43:54.413Z,971.00
2023-03-15T00:47:54.368Z,972.00
2023-03-15T00:51:54.426Z,969.00
2023-03-15T00:55:54.506Z,968.00
2023-03-15T00:59:54.570Z,964.00
2023-03-15T01:03:54.602Z,963.00
2023-03-15T01:07:54.578Z,956.00
2023-03-15T01:11:54.651Z,953.00
2023-03-15T01:15:54.821Z,957.00
2023-03-15T01:19:54.765Z,957.00
2023-03-15T01:23:54.824Z,955.00
2023-03-15T01:27:54.848Z,957.00
2023-03-15T01:31:54.949Z,953.00
2023-03-15T01:35:55.035Z,951.00
2023-03-15T01:39:55.031Z,947.00
2023-03-15T01:43:55.129Z,947.00
2023-03-15T01:47:55.148Z,939.00
2023-03-15T01:51:55.181Z,939.00
2023-03-15T01:55:55.259Z,933.00
2023-03-15T01:59:55.296Z,936.00
2023-03-15T02:03:55.374Z,933.00
2023-03-15T02:07:55.501Z,933.00
2023-03-15T02:11:55.533Z,932.00
2023-03-15T02:15:55.582Z,932.00
2023-03-15T02:19:55.672Z,930.00
2023-03-15T02:23:55.712Z,928.00
2023-03-15T02:27:55.773Z,925.00
2023-03-15T02:31:55.900Z,921.00
2023-03-15T02:35:55.931Z,918.00
2023-03-15T02:39:56.008Z,920.00
2023-03-15T02:43:56.070Z,913.00
2023-03-15T02:47:56.127Z,902.00
2023-03-15T02:51:56.203Z,898.00
2023-03-15T02:55:56.314Z,895.00
2023-03-15T02:59:56.374Z,890.00
2023-03-15T03:03:56.439Z,887.00
2023-03-15T03:07:56.546Z,887.00
2023-03-15T03:11:56.653Z,878.00
2023-03-15T03:15:56.701Z,882.00
2023-03-15T03:19:56.783Z,878.00
2023-03-15T03:23:56.835Z,878.00
2023-03-15T03:27:56.901Z,877.00
2023-03-15T03:31:57.026Z,868.00
2023-03-15T03:35:57.113Z,863.00
2023-03-15T03:39:57.258Z,865.00
2023-03-15T03:43:57.291Z,867.00
2023-03-15T03:47:57.436Z,863.00
2023-03-15T03:51:57.455Z,862.00
2023-03-15T03:55:57.507Z,858.00
2023-03-15T03:59:57.591Z,863.00
2023-03-15T04:03:57.691Z,862.00
2023-03-15T04:07:57.854Z,858.00
2023-03-15T04:11:57.829Z,849.00
2023-03-15T04:15:58.225Z,850.00
2023-03-15T04:19:58.033Z,846.00
2023-03-15T04:23:58.104Z,839.00
2023-03-15T04:27:58.173Z,834.00
2023-03-15T04:31:58.229Z,823.00
2023-03-15T04:35:58.373Z,826.00
2023-03-15T04:39:58.392Z,825.00
2023-03-15T04:43:58.503Z,819.00
2023-03-15T04:47:58.562Z,817.00
2023-03-15T04:51:58.644Z,813.00
2023-03-15T04:55:58.734Z,812.00
2023-03-15T04:59:58.815Z,810.00
2023-03-15T05:03:58.902Z,799.00
2023-03-15T05:07:59.040Z,799.00
2023-03-15T05:11:59.143Z,793.00
2023-03-15T05:15:59.324Z,797.00
2023-03-15T05:19:59.375Z,789.00
2023-03-15T05:23:59.518Z,789.00
2023-03-15T05:27:59.612Z,787.00
2023-03-15T05:31:59.740Z,784.00
2023-03-15T05:35:59.923Z,784.00
2023-03-15T05:39:59.946Z,782.00
2023-03-15T05:44:00.040Z,773.00
2023-03-15T05:48:00.161Z,775.00
2023-03-15T05:52:00.252Z,769.00
2023-03-15T05:56:00.410Z,766.00
2023-03-15T06:00:00.462Z,761.00
2023-03-15T06:04:00.624Z,759.00
2023-03-15T06:08:00.775Z,759.00
2023-03-15T06:12:00.761Z,759.00
2023-03-15T06:16:00.862Z,760.00
2023-03-15T06:20:00.955Z,759.00
2023-03-15T06:24:01.003Z,760.00
2023-03-15T06:28:01.046Z,755.00
2023-03-15T06:32:01.127Z,751.00
2023-03-15T06:36:01.581Z,751.00
2023-03-15T06:40:01.691Z,709.00
2023-03-15T06:44:01.527Z,776.00
2023-03-15T06:48:02.074Z,860.00
2023-03-15T06:52:02.140Z,959.00
2023-03-15T06:56:02.088Z,1132.00
2023-03-15T07:00:02.108Z,1296.00
2023-03-15T07:04:02.176Z,1424.00
2023-03-15T07:08:02.601Z,1542.00
2023-03-15T07:12:02.094Z,1647.00
2023-03-15T07:16:02.159Z,1775.00
2023-03-15T07:20:02.000Z,1850.00
2023-03-15T07:24:01.982Z,1974.00
2023-03-15T07:28:02.102Z,2042.00
2023-03-15T07:32:01.937Z,2170.00
2023-03-15T07:36:01.867Z,2249.00
2023-03-15T07:40:02.091Z,2323.00
2023-03-15T07:44:01.795Z,2426.00
2023-03-15T07:48:02.087Z,2542.00
2023-03-15T07:52:02.104Z,2526.00
2023-03-15T07:56:01.667Z,2494.00
2023-03-15T08:00:01.642Z,2581.00
2023-03-15T08:04:02.101Z,2649.00
2023-03-15T08:08:01.553Z,2698.00
2023-03-15T08:12:01.513Z,2680.00
2023-03-15T08:16:01.578Z,2654.00
2023-03-15T08:20:01.421Z,1749.00
2023-03-15T08:24:01.406Z,887.00
2023-03-15T08:28:01.610Z,729.00
2023-03-15T08:32:01.485Z,864.00
2023-03-15T08:36:01.543Z,971.00
2023-03-15T08:40:02.134Z,1068.00
2023-03-15T08:44:02.140Z,1182.00
2023-03-15T08:48:01.816Z,1304.00
2023-03-15T08:52:02.021Z,1467.00
2023-03-15T08:56:02.642Z,1581.00
2023-03-15T09:00:02.334Z,1670.00
2023-03-15T09:04:02.504Z,1719.00
2023-03-15T09:08:03.112Z,1780.00
2023-03-15T09:12:02.583Z,1851.00
2023-03-15T09:16:02.653Z,1896.00
2023-03-15T09:20:02.786Z,944.00
2023-03-15T09:24:02.927Z,1167.00
2023-03-15T09:28:03.060Z,1332.00
2023-03-15T09:32:03.035Z,1436.00
2023-03-15T09:36:03.238Z,1530.00
2023-03-15T09:40:02.956Z,1682.00
2023-03-15T09:44:03.150Z,1775.00
2023-03-15T09:48:03.129Z,1826.00
2023-03-15T09:52:03.182Z,1887.00
2023-03-15T09:56:02.840Z,1476.00
2023-03-15T10:00:02.798Z,1701.00
2023-03-15T10:04:03.187Z,1814.00
2023-03-15T10:08:02.734Z,1892.00
2023-03-15T10:12:03.204Z,1951.00
2023-03-15T10:16:02.689Z,2015.00
2023-03-15T10:20:02.627Z,2077.00
2023-03-15T10:24:02.649Z,2180.00
2023-03-15T10:28:02.546Z,2228.00
2023-03-15T10:32:02.557Z,2273.00
2023-03-15T10:36:11.387Z,2356.00
2023-03-15T10:40:03.643Z,2399.00
2023-03-15T10:44:02.669Z,2410.00
2023-03-15T10:48:02.645Z,2424.00
2023-03-15T10:52:02.294Z,1204.00
2023-03-15T10:56:02.681Z,1374.00
2023-03-15T11:00:02.382Z,1565.00
2023-03-15T11:04:02.673Z,1624.00
2023-03-15T11:08:02.314Z,1664.00
2023-03-15T11:12:02.278Z,1613.00
2023-03-15T11:16:02.276Z,1627.00
2023-03-15T11:20:02.214Z,1649.00
2023-03-15T11:24:02.193Z,1691.00
2023-03-15T11:28:02.151Z,1723.00
2023-03-15T11:32:02.247Z,1698.00
2023-03-15T11:36:02.250Z,1578.00
2023-03-15T11:40:11.218Z,1592.00
2023-03-15T11:44:03.189Z,1618.00
2023-03-15T11:48:01.962Z,1642.00
2023-03-15T11:52:01.911Z,1664.00
2023-03-15T11:56:02.191Z,1671.00
2023-03-15T12:00:02.301Z,1674.00
2023-03-15T12:04:02.418Z,1678.00
2023-03-15T12:08:02.603Z,1675.00
2023-03-15T12:12:02.667Z,1676.00
2023-03-15T12:16:02.851Z,1678.00
2023-03-15T12:20:03.021Z,1682.00
2023-03-15T12:24:03.124Z,1677.00
2023-03-15T12:28:03.707Z,1678.00
2023-03-15T12:32:03.456Z,1681.00
2023-03-15T12:36:03.746Z,1681.00
2023-03-15T12:40:03.778Z,1677.00
2023-03-15T12:44:03.903Z,1679.00
2023-03-15T12:48:04.029Z,1674.00
2023-03-15T12:52:04.212Z,1481.00
2023-03-15T12:56:08.808Z,1490.00
2023-03-15T13:00:04.319Z,1444.00
2023-03-15T13:04:04.254Z,1405.00
2023-03-15T13:08:04.252Z,1391.00
2023-03-15T13:12:04.181Z,1410.00
2023-03-15T13:16:04.235Z,1430.00
2023-03-15T13:20:04.378Z,1441.00
2023-03-15T13:24:04.462Z,1431.00
2023-03-15T13:28:04.564Z,1412.00
2023-03-15T13:32:04.658Z,1402.00
2023-03-15T13:36:04.722Z,1394.00
2023-03-15T13:40:04.759Z,1390.00
2023-03-15T13:44:04.780Z,1386.00
2023-03-15T13:48:04.821Z,1383.00
2023-03-15T13:52:04.822Z,1374.00
2023-03-15T13:56:04.829Z,1369.00
2023-03-15T14:00:04.819Z,1364.00
2023-03-15T14:04:04.856Z,1357.00
2023-03-15T14:08:04.868Z,1351.00
2023-03-15T14:12:04.928Z,1349.00
2023-03-15T14:16:04.958Z,1348.00
2023-03-15T14:20:04.903Z,1350.00
2023-03-15T14:24:04.934Z,1344.00
2023-03-15T14:28:04.982Z,1338.00
2023-03-15T14:32:04.982Z,1335.00
2023-03-15T14:36:05.065Z,1335.00
2023-03-15T14:40:05.066Z,1329.00
2023-03-15T14:44:05.107Z,1325.00
2023-03-15T14:48:05.180Z,1321.00
2023-03-15T14:52:05.219Z,1321.00
2023-03-15T14:56:05.286Z,1322.00
2023-03-15T15:00:05.340Z,1314.00
2023-03-15T15:04:05.429Z,1311.00
2023-03-15T15:08:05.507Z,1302.00
2023-03-15T15:12:05.583Z,1305.00
2023-03-15T15:16:05.709Z,1296.00
2023-03-15T15:20:05.830Z,1288.00
2023-03-15T15:24:05.933Z,1290.00
2023-03-15T15:28:05.929Z,1290.00
2023-03-15T15:32:06.113Z,1290.00
2023-03-15T15:36:06.161Z,1296.00
2023-03-15T15:40:06.115Z,1298.00
2023-03-15T15:44:06.216Z,1296.00
2023-03-15T15:48:06.294Z,1291.00
2023-03-15T15:52:06.382Z,1286.00
2023-03-15T15:56:06.453Z,1279.00
2023-03-15T16:00:06.545Z,1271.00
2023-03-15T16:04:06.665Z,1266.00
2023-03-15T16:08:06.844Z,1257.00
2023-03-15T16:12:06.946Z,1252.00
2023-03-15T16:16:07.101Z,1239.00
2023-03-15T16:20:07.234Z,1237.00
2023-03-15T16:24:07.406Z,1229.00
2023-03-15T16:28:07.528Z,1229.00
2023-03-15T16:32:16.861Z,1222.00
2023-03-15T16:36:08.703Z,1218.00
2023-03-15T16:40:07.575Z,1217.00
2023-03-15T16:44:07.532Z,1216.00
2023-03-15T16:48:07.651Z,1215.00
2023-03-15T16:52:07.817Z,1207.00
2023-03-15T16:56:07.970Z,1202.00
2023-03-15T17:00:08.181Z,1195.00
2023-03-15T17:04:08.383Z,1191.00
2023-03-15T17:08:08.514Z,1188.00
2023-03-15T17:12:08.686Z,1185.00
2023-03-15T17:16:08.907Z,1189.00
2023-03-15T17:20:09.094Z,1185.00
2023-03-15T17:24:09.238Z,1184.00
2023-03-15T17:28:09.492Z,1184.00
2023-03-15T17:32:09.748Z,1176.00
2023-03-15T17:36:10.005Z,1165.00
2023-03-15T17:40:10.118Z,1158.00
2023-03-15T17:44:10.345Z,1150.00
2023-03-15T17:48:10.366Z,1146.00
2023-03-15T17:52:10.250Z,1150.00
2023-03-15T17:56:10.279Z,1139.00
2023-03-15T18:00:10.165Z,1132.00
2023-03-15T18:04:10.157Z,1130.00
2023-03-15T18:08:10.081Z,1125.00
2023-03-15T18:12:10.088Z,1116.00
2023-03-15T18:16:10.053Z,1109.00
2023-03-15T18:20:09.987Z,1107.00
2023-03-15T18:24:09.995Z,1107.00
2023-03-15T18:28:09.966Z,1106.00
2023-03-15T18:32:09.959Z,1100.00
2023-03-15T18:36:10.000Z,1094.00
2023-03-15T18:40:09.825Z,1086.00
2023-03-15T18:44:09.773Z,1080.00
2023-03-15T18:48:09.788Z,1081.00
2023-03-15T18:52:09.709Z,1075.00
2023-03-15T18:56:09.688Z,1074.00
2023-03-15T19:00:09.627Z,1077.00
2023-03-15T19:04:09.781Z,1069.00
2023-03-15T19:08:09.699Z,1072.00
2023-03-15T19:12:09.690Z,1070.00
2023-03-15T19:16:09.624Z,1057.00
2023-03-15T19:20:09.593Z,1049.00
2023-03-15T19:24:09.620Z,1042.00
2023-03-15T19:28:09.518Z,1049.00
2023-03-15T19:32:09.517Z,1046.00
2023-03-15T19:36:09.448Z,1035.00
2023-03-15T19:40:09.406Z,1031.00
2023-03-15T19:44:09.573Z,1020.00
2023-03-15T19:48:09.538Z,1027.00
2023-03-15T19:52:09.514Z,1024.00
2023-03-15T19:56:09.437Z,1020.00
2023-03-15T20:00:09.393Z,1010.00
2023-03-15T20:04:09.471Z,1011.00
2023-03-15T20:08:09.330Z,1004.00
2023-03-15T20:12:09.299Z,1000.00
2023-03-15T20:16:09.352Z,987.00
2023-03-15T20:20:09.213Z,988.00
2023-03-15T20:24:09.355Z,987.00
2023-03-15T20:28:09.277Z,981.00
2023-03-15T20:32:09.228Z,975.00
2023-03-15T20:36:09.256Z,978.00
2023-03-15T20:40:09.141Z,974.00
2023-03-15T20:44:09.107Z,967.00
2023-03-15T20:48:09.090Z,972.00
2023-03-15T20:52:09.067Z,967.00
2023-03-15T20:56:09.006Z,963.00
2023-03-15T21:00:08.988Z,954.00
2023-03-15T21:04:08.960Z,952.00
2023-03-15T21:08:08.980Z,949.00
2023-03-15T21:12:09.067Z,948.00
2023-03-15T21:16:09.251Z,945.00
2023-03-15T21:20:09.259Z,939.00
2023-03-15T21:24:09.378Z,936.00
2023-03-15T21:28:09.558Z,931.00
2023-03-15T21:32:09.570Z,929.00
2023-03-15T21:36:09.705Z,924.00
2023-03-15T21:40:09.840Z,916.00
2023-03-15T21:44:09.859Z,915.00
2023-03-15T21:48:10.042Z,916.00
2023-03-15T21:52:10.167Z,910.00
2023-03-15T21:56:10.356Z,905.00
2023-03-15T22:00:10.502Z,902.00
2023-03-15T22:04:10.580Z,901.00
2023-03-15T22:08:10.600Z,902.00
2023-03-15T22:12:10.687Z,894.00
2023-03-15T22:16:10.795Z,896.00
2023-03-15T22:20:10.917Z,886.00
2023-03-15T22:24:10.966Z,889.00
2023-03-15T22:28:11.015Z,891.00
2023-03-15T22:32:11.005Z,886.00
2023-03-15T22:36:10.979Z,876.00
2023-03-15T22:40:11.031Z,869.00
2023-03-15T22:44:10.991Z,867.00
2023-03-15T22:48:11.036Z,863.00
2023-03-15T22:52:11.042Z,854.00
2023-03-15T22:56:11.028Z,854.00
2023-03-15T23:00:11.056Z,855.00
2023-03-15T23:04:11.105Z,847.00
2023-03-15T23:08:11.105Z,855.00
2023-03-15T23:12:11.105Z,849.00
2023-03-15T23:16:11.215Z,851.00
2023-03-15T23:20:11.155Z,842.00
2023-03-15T23:24:11.205Z,837.00
2023-03-15T23:28:11.181Z,837.00
2023-03-15T23:32:11.212Z,830.00
2023-03-15T23:36:11.190Z,826.00
2023-03-15T23:40:11.167Z,833.00
2023-03-15T23:44:11.156Z,831.00
2023-03-15T23:48:11.153Z,830.00
2023-03-15T23:52:11.464Z,828.00
2023-03-15T23:56:11.165Z,817.00
